Time;durP1;ratioP1;P1;durP2;ratioP2;P2;SDS_P1;SDS_P2;PMS_P1;PMS_P2;Temp;Humidity;BMP_temperature;BMP_pressure;BME280_temperature;BME280_humidity;BME280_pressure;Samples;Min_cycle;Max_cycle;Signal;HPM_P1;HPM_P2
2022/09/07 00:00:51;;;;;;;0.30;0.30;;;;;;;;;;4991027;28;20252;-81
2022/09/07 00:03:20;;;;;;;0.30;0.30;;;;;;;;;;4976709;28;20283;-82
2022/09/07 00:05:50;;;;;;;0.30;0.30;;;;;;;;;;4964342;28;20362;-82
2022/09/07 00:08:20;;;;;;;0.30;0.30;;;;;;;;;;4976584;28;20211;-82
2022/09/07 00:10:53;;;;;;;0.30;0.30;;;;;;;;;;4993427;28;20297;-82
2022/09/07 00:13:22;;;;;;;0.50;0.50;;;;;;;;;;4976499;28;20211;-81
2022/09/07 00:15:51;;;;;;;0.30;0.30;;;;;;;;;;4993906;28;20223;-82
2022/09/07 00:18:20;;;;;;;0.40;0.40;;;;;;;;;;4976369;28;20204;-81
2022/09/07 00:20:48;;;;;;;0.30;0.30;;;;;;;;;;4976600;28;20201;-82
2022/09/07 00:23:16;;;;;;;0.30;0.30;;;;;;;;;;4993782;28;20200;-81
2022/09/07 00:25:45;;;;;;;0.30;0.30;;;;;;;;;;4968107;28;20199;-81
2022/09/07 00:28:19;;;;;;;0.30;0.30;;;;;;;;;;4975571;28;20214;-81
2022/09/07 00:30:47;;;;;;;0.30;0.30;;;;;;;;;;4993265;28;20209;-81
2022/09/07 00:33:16;;;;;;;0.30;0.30;;;;;;;;;;4976381;28;20192;-82
2022/09/07 00:35:45;;;;;;;0.30;0.30;;;;;;;;;;4970129;28;20288;-81
2022/09/07 00:38:13;;;;;;;0.30;0.30;;;;;;;;;;4987058;28;20200;-80
2022/09/07 00:40:41;;;;;;;0.30;0.30;;;;;;;;;;4993447;28;20216;-81
2022/09/07 00:43:13;;;;;;;0.30;0.30;;;;;;;;;;4976624;28;20262;-81
2022/09/07 00:45:43;;;;;;;0.30;0.30;;;;;;;;;;4993311;28;20192;-82
2022/09/07 00:48:15;;;;;;;0.30;0.30;;;;;;;;;;4976201;28;20204;-82
2022/09/07 00:50:46;;;;;;;0.37;0.37;;;;;;;;;;4977447;28;20230;-81
2022/09/07 00:53:16;;;;;;;0.30;0.30;;;;;;;;;;4979878;28;20199;-82
2022/09/07 00:55:46;;;;;;;0.30;0.30;;;;;;;;;;4967474;28;20296;-82
2022/09/07 00:58:14;;;;;;;0.30;0.30;;;;;;;;;;4996574;28;20212;-82
2022/09/07 01:00:46;;;;;;;0.30;0.30;;;;;;;;;;4978686;28;20275;-81
2022/09/07 01:03:15;;;;;;;0.30;0.30;;;;;;;;;;4996887;28;20212;-82
2022/09/07 01:05:44;;;;;;;0.40;0.40;;;;;;;;;;4996686;28;20199;-82
2022/09/07 01:08:13;;;;;;;0.30;0.30;;;;;;;;;;4979383;28;20212;-82
2022/09/07 01:10:42;;;;;;;0.30;0.30;;;;;;;;;;4979599;28;20210;-82
2022/09/07 01:13:10;;;;;;;0.30;0.30;;;;;;;;;;4996597;28;20251;-82
2022/09/07 01:15:42;;;;;;;0.30;0.30;;;;;;;;;;4979032;28;20219;-82
2022/09/07 01:18:18;;;;;;;0.30;0.30;;;;;;;;;;4979290;28;20284;-82
2022/09/07 01:20:55;;;;;;;0.30;0.30;;;;;;;;;;4996447;28;20196;-82
2022/09/07 01:23:38;;;;;;;0.40;0.40;;;;;;;;;;4966731;28;20259;-82
2022/09/07 01:26:22;;;;;;;0.37;0.37;;;;;;;;;;4979154;28;20188;-82
2022/09/07 01:28:56;;;;;;;0.30;0.30;;;;;;;;;;4996420;28;20266;-82
2022/09/07 01:31:28;;;;;;;0.30;0.30;;;;;;;;;;4995787;28;20200;-81
2022/09/07 01:34:00;;;;;;;0.33;0.33;;;;;;;;;;4978420;28;20228;-82
2022/09/07 01:36:34;;;;;;;0.30;0.30;;;;;;;;;;4983544;28;20319;-82
2022/09/07 01:39:03;;;;;;;0.30;0.30;;;;;;;;;;4979289;28;20252;-82
2022/09/07 01:41:34;;;;;;;0.30;0.30;;;;;;;;;;4996072;28;20207;-82
2022/09/07 01:44:06;;;;;;;0.30;0.30;;;;;;;;;;4979068;28;20213;-82
2022/09/07 01:46:36;;;;;;;0.30;0.30;;;;;;;;;;4966254;28;20197;-83
2022/09/07 01:49:09;;;;;;;0.30;0.30;;;;;;;;;;4978925;28;20204;-82
2022/09/07 01:51:39;;;;;;;0.40;0.40;;;;;;;;;;4978416;28;20197;-82
2022/09/07 01:54:09;;;;;;;0.30;0.30;;;;;;;;;;4995826;28;20232;-82
2022/09/07 01:56:41;;;;;;;0.30;0.30;;;;;;;;;;4995650;28;20274;-82
2022/09/07 01:59:15;;;;;;;0.30;0.30;;;;;;;;;;4978486;28;20208;-82
2022/09/07 02:01:46;;;;;;;0.30;0.30;;;;;;;;;;4977135;28;20262;-83
2022/09/07 02:04:18;;;;;;;0.30;0.30;;;;;;;;;;4995538;28;20201;-83
2022/09/07 02:06:48;;;;;;;0.30;0.30;;;;;;;;;;4978130;28;20207;-84
2022/09/07 02:09:21;;;;;;;0.30;0.30;;;;;;;;;;4978604;28;20208;-83
2022/09/07 02:11:50;;;;;;;0.30;0.30;;;;;;;;;;4995403;28;20270;-84
2022/09/07 02:14:22;;;;;;;0.30;0.30;;;;;;;;;;4978685;28;20197;-84
2022/09/07 02:16:54;;;;;;;0.30;0.30;;;;;;;;;;4978237;28;20223;-84
2022/09/07 02:19:23;;;;;;;0.30;0.30;;;;;;;;;;4995786;28;20208;-84
2022/09/07 02:21:57;;;;;;;0.30;0.30;;;;;;;;;;4995308;28;20218;-84
2022/09/07 02:24:26;;;;;;;0.30;0.30;;;;;;;;;;4978514;28;20262;-85
2022/09/07 02:26:56;;;;;;;0.30;0.30;;;;;;;;;;4995778;28;20203;-85
2022/09/07 02:29:26;;;;;;;0.30;0.30;;;;;;;;;;4995370;28;20262;-84
2022/09/07 02:31:58;;;;;;;0.30;0.30;;;;;;;;;;4977660;28;20223;-85
2022/09/07 02:34:26;;;;;;;0.30;0.30;;;;;;;;;;4978283;28;20196;-84
2022/09/07 02:36:55;;;;;;;0.30;0.30;;;;;;;;;;4977913;28;20243;-84
2022/09/07 02:39:23;;;;;;;0.40;0.40;;;;;;;;;;4995154;28;20223;-85
2022/09/07 02:41:51;;;;;;;0.30;0.30;;;;;;;;;;4977656;28;20247;-85
2022/09/07 02:44:21;;;;;;;0.30;0.30;;;;;;;;;;4978016;28;20203;-85
2022/09/07 02:46:59;;;;;;;0.40;0.40;;;;;;;;;;4977826;28;20188;-84
2022/09/07 02:49:34;;;;;;;0.30;0.30;;;;;;;;;;4977613;28;20212;-85
2022/09/07 02:52:07;;;;;;;0.30;0.30;;;;;;;;;;4994904;28;20196;-84
2022/09/07 02:54:44;;;;;;;0.30;0.30;;;;;;;;;;4977258;28;20204;-84
2022/09/07 02:57:18;;;;;;;0.30;0.30;;;;;;;;;;4994886;28;20223;-84
2022/09/07 02:59:49;;;;;;;0.30;0.30;;;;;;;;;;4977749;28;20252;-84
2022/09/07 03:02:24;;;;;;;0.30;0.30;;;;;;;;;;4994253;28;20244;-84
2022/09/07 03:04:57;;;;;;;0.30;0.30;;;;;;;;;;4958775;28;20255;-85
2022/09/07 03:07:29;;;;;;;0.40;0.40;;;;;;;;;;4957828;28;20257;-84
2022/09/07 03:10:02;;;;;;;0.30;0.30;;;;;;;;;;4985176;28;20274;-84
2022/09/07 03:12:39;;;;;;;0.30;0.30;;;;;;;;;;4994500;28;20200;-84
2022/09/07 03:15:08;;;;;;;0.30;0.30;;;;;;;;;;4977640;28;20266;-83
2022/09/07 03:17:37;;;;;;;0.30;0.30;;;;;;;;;;4976859;28;20208;-84
2022/09/07 03:20:06;;;;;;;0.30;0.30;;;;;;;;;;4976976;28;20208;-84
2022/09/07 03:22:35;;;;;;;0.40;0.40;;;;;;;;;;4994252;28;20196;-83
2022/09/07 03:25:03;;;;;;;0.30;0.30;;;;;;;;;;4994197;28;20211;-85
2022/09/07 03:27:32;;;;;;;0.30;0.30;;;;;;;;;;4993809;28;20209;-84
2022/09/07 03:30:01;;;;;;;0.30;0.30;;;;;;;;;;4977076;28;20272;-85
2022/09/07 03:32:30;;;;;;;0.30;0.30;;;;;;;;;;4976470;28;20204;-85
2022/09/07 03:35:00;;;;;;;0.30;0.30;;;;;;;;;;4993972;28;20215;-85
2022/09/07 03:37:29;;;;;;;0.30;0.30;;;;;;;;;;4993907;28;20224;-84
2022/09/07 03:39:58;;;;;;;0.30;0.30;;;;;;;;;;4976453;28;20242;-84
2022/09/07 03:42:26;;;;;;;0.30;0.30;;;;;;;;;;4976978;28;20271;-85
2022/09/07 03:44:55;;;;;;;0.20;0.20;;;;;;;;;;4976382;28;20343;-85
2022/09/07 03:47:23;;;;;;;0.40;0.40;;;;;;;;;;4976870;28;20212;-85
2022/09/07 03:49:51;;;;;;;0.40;0.40;;;;;;;;;;4976531;28;20192;-85
2022/09/07 03:52:21;;;;;;;0.30;0.30;;;;;;;;;;4977111;28;20199;-85
2022/09/07 03:54:49;;;;;;;0.30;0.30;;;;;;;;;;4993330;28;20203;-85
2022/09/07 03:57:19;;;;;;;0.37;0.37;;;;;;;;;;4976459;28;20212;-84
2022/09/07 03:59:48;;;;;;;0.30;0.30;;;;;;;;;;4974625;28;20259;-84
2022/09/07 04:02:17;;;;;;;0.30;0.30;;;;;;;;;;4975928;28;20287;-84
2022/09/07 04:04:45;;;;;;;0.50;0.50;;;;;;;;;;4976447;28;20227;-84
2022/09/07 04:07:14;;;;;;;0.30;0.30;;;;;;;;;;4993847;28;20207;-83
2022/09/07 04:09:44;;;;;;;0.40;0.40;;;;;;;;;;4976211;28;20223;-84
2022/09/07 04:12:12;;;;;;;0.40;0.40;;;;;;;;;;4993211;28;20207;-83
2022/09/07 04:14:41;;;;;;;0.30;0.30;;;;;;;;;;4976080;28;20211;-83
2022/09/07 04:17:09;;;;;;;0.30;0.30;;;;;;;;;;4993430;28;20230;-83
2022/09/07 04:19:38;;;;;;;0.40;0.40;;;;;;;;;;4976347;28;20208;-83
2022/09/07 04:22:06;;;;;;;0.40;0.40;;;;;;;;;;4976164;28;20215;-83
2022/09/07 04:24:34;;;;;;;0.30;0.30;;;;;;;;;;4967190;28;20217;-84
2022/09/07 04:27:04;;;;;;;0.30;0.30;;;;;;;;;;4977956;28;20196;-83
2022/09/07 04:29:32;;;;;;;0.40;0.40;;;;;;;;;;4979738;28;20212;-83
2022/09/07 04:32:01;;;;;;;0.30;0.30;;;;;;;;;;4997192;28;20223;-83
2022/09/07 04:34:29;;;;;;;0.30;0.30;;;;;;;;;;4996939;28;20222;-84
2022/09/07 04:36:57;;;;;;;0.40;0.40;;;;;;;;;;4996683;28;20257;-84
2022/09/07 04:39:26;;;;;;;0.30;0.30;;;;;;;;;;4979932;28;20204;-84
2022/09/07 04:41:55;;;;;;;0.30;0.30;;;;;;;;;;4996727;28;20214;-84
2022/09/07 04:44:25;;;;;;;1.00;1.00;;;;;;;;;;4979348;28;20208;-83
2022/09/07 04:46:53;;;;;;;0.30;0.30;;;;;;;;;;4979809;28;20211;-84
2022/09/07 04:49:21;;;;;;;0.40;0.40;;;;;;;;;;4978896;28;20204;-83
2022/09/07 04:51:50;;;;;;;0.30;0.30;;;;;;;;;;4979706;28;20195;-84
2022/09/07 04:54:18;;;;;;;0.33;0.33;;;;;;;;;;4979286;28;20212;-84
2022/09/07 04:56:46;;;;;;;0.40;0.40;;;;;;;;;;4996889;28;20223;-79
2022/09/07 04:59:15;;;;;;;0.40;0.40;;;;;;;;;;4979565;28;20204;-84
2022/09/07 05:01:45;;;;;;;0.40;0.40;;;;;;;;;;4979137;28;20267;-83
2022/09/07 05:04:13;;;;;;;0.40;0.40;;;;;;;;;;4996708;28;20208;-84
2022/09/07 05:06:41;;;;;;;0.37;0.37;;;;;;;;;;4979500;28;20203;-82
2022/09/07 05:09:10;;;;;;;0.30;0.30;;;;;;;;;;4996428;28;20191;-83
2022/09/07 05:11:39;;;;;;;0.40;0.40;;;;;;;;;;4979231;28;20211;-83
2022/09/07 05:14:07;;;;;;;0.40;0.40;;;;;;;;;;4996371;28;20197;-84
2022/09/07 05:16:35;;;;;;;0.40;0.40;;;;;;;;;;4996603;28;20212;-83
2022/09/07 05:19:06;;;;;;;0.37;0.37;;;;;;;;;;4979107;28;20220;-83
2022/09/07 05:21:35;;;;;;;0.40;0.40;;;;;;;;;;4996743;28;20251;-83
2022/09/07 05:24:04;;;;;;;0.40;0.40;;;;;;;;;;4978748;28;20258;-83
2022/09/07 05:26:33;;;;;;;0.40;0.40;;;;;;;;;;4979259;28;20211;-83
2022/09/07 05:29:03;;;;;;;0.30;0.30;;;;;;;;;;4967763;28;20223;-83
2022/09/07 05:31:51;;;;;;;0.40;0.40;;;;;;;;;;4978308;28;20223;-83
2022/09/07 05:34:21;;;;;;;0.30;0.30;;;;;;;;;;4978368;28;20196;-83
2022/09/07 05:36:57;;;;;;;0.30;0.30;;;;;;;;;;4978496;28;20204;-83
2022/09/07 05:39:26;;;;;;;0.30;0.30;;;;;;;;;;4995469;28;20212;-84
2022/09/07 05:41:54;;;;;;;0.40;0.40;;;;;;;;;;4978551;28;20270;-83
2022/09/07 05:44:23;;;;;;;0.40;0.40;;;;;;;;;;4978680;28;20261;-84
2022/09/07 05:47:11;;;;;;;0.40;0.40;;;;;;;;;;4995611;28;20272;-83
2022/09/07 05:49:41;;;;;;;0.40;0.40;;;;;;;;;;4995421;28;20196;-84
2022/09/07 05:52:10;;;;;;;0.30;0.30;;;;;;;;;;4978738;28;20254;-84
2022/09/07 05:54:39;;;;;;;0.37;0.37;;;;;;;;;;4978624;28;20205;-83
2022/09/07 05:57:07;;;;;;;0.30;0.30;;;;;;;;;;4978149;28;20220;-83
2022/09/07 05:59:35;;;;;;;0.30;0.30;;;;;;;;;;4978357;28;20200;-84
2022/09/07 06:02:04;;;;;;;0.30;0.30;;;;;;;;;;4995601;28;20247;-83
2022/09/07 06:04:33;;;;;;;0.40;0.40;;;;;;;;;;4977896;28;20200;-84
2022/09/07 06:07:03;;;;;;;0.30;0.30;;;;;;;;;;4995368;28;20199;-84
2022/09/07 06:09:49;;;;;;;0.30;0.30;;;;;;;;;;4967745;28;20196;-83
2022/09/07 06:12:38;;;;;;;0.30;0.30;;;;;;;;;;4977562;28;20215;-84
2022/09/07 06:15:06;;;;;;;0.30;0.30;;;;;;;;;;4977780;28;20204;-83
2022/09/07 06:17:35;;;;;;;0.30;0.30;;;;;;;;;;4977517;28;20220;-83
2022/09/07 06:20:03;;;;;;;0.40;0.40;;;;;;;;;;4977644;28;20209;-83
2022/09/07 06:22:35;;;;;;;0.40;0.40;;;;;;;;;;4982428;28;20204;-83
2022/09/07 06:25:03;;;;;;;0.30;0.30;;;;;;;;;;4977814;28;20210;-83
2022/09/07 06:27:32;;;;;;;0.30;0.30;;;;;;;;;;4977793;28;20200;-83
2022/09/07 06:30:00;;;;;;;0.40;0.40;;;;;;;;;;4964475;28;20207;-83
2022/09/07 06:32:28;;;;;;;0.30;0.30;;;;;;;;;;4977472;28;20208;-83
2022/09/07 06:35:14;;;;;;;0.40;0.40;;;;;;;;;;4977680;28;20204;-83
2022/09/07 06:37:44;;;;;;;0.33;0.33;;;;;;;;;;4977663;28;20216;-83
2022/09/07 06:40:12;;;;;;;0.40;0.40;;;;;;;;;;4994548;28;20262;-82
2022/09/07 06:42:41;;;;;;;0.30;0.30;;;;;;;;;;4994960;28;20206;-83
2022/09/07 06:45:09;;;;;;;0.30;0.30;;;;;;;;;;4971860;28;20203;-83
2022/09/07 06:47:39;;;;;;;0.40;0.40;;;;;;;;;;4970614;28;20209;-79
2022/09/07 06:50:08;;;;;;;0.30;0.30;;;;;;;;;;4965139;28;20216;-79
2022/09/07 06:52:37;;;;;;;0.30;0.30;;;;;;;;;;4977083;28;20208;-79
2022/09/07 06:55:32;;;;;;;0.30;0.30;;;;;;;;;;4976893;28;20209;-80
2022/09/07 06:58:00;;;;;;;0.30;0.30;;;;;;;;;;4963779;28;20240;-78
2022/09/07 07:00:29;;;;;;;0.30;0.30;;;;;;;;;;4959746;28;20291;-80
2022/09/07 07:03:00;;;;;;;0.30;0.30;;;;;;;;;;4956805;28;20240;-81
2022/09/07 07:05:30;;;;;;;0.40;0.40;;;;;;;;;;4959969;28;20199;-80
2022/09/07 07:07:58;;;;;;;0.30;0.30;;;;;;;;;;4958881;28;20204;-80
2022/09/07 07:10:28;;;;;;;0.30;0.30;;;;;;;;;;4978669;28;20201;-80
2022/09/07 07:12:57;;;;;;;0.30;0.30;;;;;;;;;;4982943;28;20209;-80
2022/09/07 07:15:28;;;;;;;0.30;0.30;;;;;;;;;;4975960;28;20239;-80
2022/09/07 07:17:57;;;;;;;0.30;0.30;;;;;;;;;;4983116;28;20215;-81
2022/09/07 07:20:41;;;;;;;0.30;0.30;;;;;;;;;;4966821;28;20223;-80
2022/09/07 07:23:11;;;;;;;0.30;0.30;;;;;;;;;;4965695;28;20201;-80
2022/09/07 07:25:40;;;;;;;0.30;0.30;;;;;;;;;;4965716;28;20265;-80
2022/09/07 07:28:12;;;;;;;0.30;0.30;;;;;;;;;;4965768;28;20197;-80
2022/09/07 07:31:01;;;;;;;0.30;0.30;;;;;;;;;;4965161;28;20201;-80
2022/09/07 07:33:56;;;;;;;0.30;0.30;;;;;;;;;;4982067;28;20204;-80
2022/09/07 07:36:26;;;;;;;0.40;0.40;;;;;;;;;;4977207;28;20203;-81
2022/09/07 07:38:55;;;;;;;0.30;0.30;;;;;;;;;;4967645;28;20217;-81
2022/09/07 07:41:30;;;;;;;0.30;0.30;;;;;;;;;;4981416;28;20200;-82
2022/09/07 07:44:19;;;;;;;0.30;0.30;;;;;;;;;;4956651;28;20295;-82
2022/09/07 07:46:48;;;;;;;1.07;1.07;;;;;;;;;;4968531;28;20279;-81
2022/09/07 07:49:17;;;;;;;0.30;0.30;;;;;;;;;;4970294;28;20251;-81
2022/09/07 07:51:46;;;;;;;0.30;0.30;;;;;;;;;;4967309;28;20208;-81
2022/09/07 07:54:35;;;;;;;0.30;0.30;;;;;;;;;;4965169;28;20203;-79
2022/09/07 07:57:07;;;;;;;0.30;0.30;;;;;;;;;;4961861;28;20212;-81
2022/09/07 07:59:36;;;;;;;0.30;0.30;;;;;;;;;;4965955;28;20227;-80
2022/09/07 08:02:05;;;;;;;0.30;0.30;;;;;;;;;;4980872;28;20261;-80
2022/09/07 08:04:34;;;;;;;0.30;0.30;;;;;;;;;;4972143;28;20212;-80
2022/09/07 08:07:03;;;;;;;0.30;0.30;;;;;;;;;;4966650;28;20193;-81
2022/09/07 08:09:39;;;;;;;0.30;0.30;;;;;;;;;;4968072;28;20197;-80
2022/09/07 08:12:12;;;;;;;0.30;0.30;;;;;;;;;;4963310;28;20213;-81
2022/09/07 08:14:43;;;;;;;0.30;0.30;;;;;;;;;;4970378;28;20204;-81
2022/09/07 08:17:13;;;;;;;0.30;0.30;;;;;;;;;;4970588;28;20306;-81
2022/09/07 08:19:41;;;;;;;0.30;0.30;;;;;;;;;;4966868;28;20220;-81
2022/09/07 08:22:10;;;;;;;0.30;0.30;;;;;;;;;;4964109;28;20255;-81
2022/09/07 08:24:39;;;;;;;0.30;0.30;;;;;;;;;;4966925;28;20220;-81
2022/09/07 08:27:07;;;;;;;0.30;0.30;;;;;;;;;;4976142;28;20212;-80
2022/09/07 08:29:38;;;;;;;0.40;0.40;;;;;;;;;;4963973;28;20205;-81
2022/09/07 08:32:06;;;;;;;0.30;0.30;;;;;;;;;;4969070;28;20220;-81
2022/09/07 08:34:38;;;;;;;0.30;0.30;;;;;;;;;;4983588;28;20201;-82
2022/09/07 08:37:06;;;;;;;0.30;0.30;;;;;;;;;;4980881;28;20223;-82
2022/09/07 08:39:38;;;;;;;0.30;0.30;;;;;;;;;;4964878;28;20208;-82
2022/09/07 08:42:21;;;;;;;0.30;0.30;;;;;;;;;;4982321;28;20250;-82
2022/09/07 08:44:52;;;;;;;0.37;0.37;;;;;;;;;;4967934;28;20200;-82
2022/09/07 08:47:24;;;;;;;0.30;0.30;;;;;;;;;;4958419;28;20221;-81
2022/09/07 08:49:55;;;;;;;0.30;0.30;;;;;;;;;;4977968;28;20285;-80
2022/09/07 08:52:27;;;;;;;0.30;0.30;;;;;;;;;;4965886;28;20216;-81
2022/09/07 08:55:01;;;;;;;0.30;0.30;;;;;;;;;;4980465;28;20208;-81
2022/09/07 08:57:32;;;;;;;0.30;0.30;;;;;;;;;;4968716;28;20218;-82
2022/09/07 09:00:06;;;;;;;0.30;0.30;;;;;;;;;;4959175;28;20207;-81
2022/09/07 09:02:35;;;;;;;0.30;0.30;;;;;;;;;;4966367;28;20243;-80
2022/09/07 09:05:22;;;;;;;0.23;0.23;;;;;;;;;;4979034;28;20202;-81
2022/09/07 09:07:57;;;;;;;0.30;0.30;;;;;;;;;;4962477;28;20266;-81
2022/09/07 09:10:32;;;;;;;0.30;0.30;;;;;;;;;;4977637;28;20203;-81
2022/09/07 09:13:03;;;;;;;0.30;0.30;;;;;;;;;;4959749;28;20230;-81
2022/09/07 09:15:41;;;;;;;0.30;0.30;;;;;;;;;;4957192;28;20204;-81
2022/09/07 09:18:17;;;;;;;0.30;0.30;;;;;;;;;;4959019;28;22231;-81
2022/09/07 09:20:49;;;;;;;0.30;0.30;;;;;;;;;;4965812;28;20219;-80
2022/09/07 09:23:19;;;;;;;0.20;0.20;;;;;;;;;;4959012;28;20277;-81
2022/09/07 09:25:51;;;;;;;0.30;0.30;;;;;;;;;;4968408;28;20222;-80
2022/09/07 09:28:20;;;;;;;0.30;0.30;;;;;;;;;;4965271;28;20234;-82
2022/09/07 09:30:50;;;;;;;0.30;0.30;;;;;;;;;;4979537;28;20205;-82
2022/09/07 09:33:20;;;;;;;0.30;0.30;;;;;;;;;;4963813;28;20222;-81
2022/09/07 09:35:50;;;;;;;0.30;0.30;;;;;;;;;;4966067;28;20206;-82
2022/09/07 09:38:32;;;;;;;0.30;0.30;;;;;;;;;;4963477;28;20207;-81
2022/09/07 09:41:03;;;;;;;0.20;0.20;;;;;;;;;;4977831;28;20235;-82
2022/09/07 09:43:37;;;;;;;0.30;0.30;;;;;;;;;;4977243;28;20201;-83
2022/09/07 09:46:16;;;;;;;0.30;0.30;;;;;;;;;;4959834;28;20217;-81
2022/09/07 09:48:58;;;;;;;5.40;4.10;;;;;;;;;;4966112;28;20200;-81
2022/09/07 09:51:32;;;;;;;1.63;1.53;;;;;;;;;;4962671;28;20322;-81
2022/09/07 09:54:23;;;;;;;3.00;2.73;;;;;;;;;;4963506;28;20295;-82
2022/09/07 09:56:52;;;;;;;1.57;1.47;;;;;;;;;;4979487;28;20215;-81
2022/09/07 09:59:22;;;;;;;2.73;2.53;;;;;;;;;;4962435;28;20256;-81
2022/09/07 10:02:29;;;;;;;1.00;1.00;;;;;;;;;;4982303;28;20341;-82
2022/09/07 10:05:21;;;;;;;4.90;4.13;;;;;;;;;;4964611;28;20223;-82
2022/09/07 10:07:55;;;;;;;1.27;1.17;;;;;;;;;;4960633;28;20199;-82
2022/09/07 10:10:28;;;;;;;1.60;1.30;;;;;;;;;;4960819;28;20263;-84
2022/09/07 10:12:57;;;;;;;3.13;2.57;;;;;;;;;;4964821;28;20210;-81
2022/09/07 10:15:27;;;;;;;1.97;1.87;;;;;;;;;;4962635;28;20212;-82
2022/09/07 10:17:58;;;;;;;4.53;3.70;;;;;;;;;;4979534;28;20222;-81
2022/09/07 10:20:36;;;;;;;5.60;2.50;;;;;;;;;;4964822;28;20233;-82
2022/09/07 10:23:05;;;;;;;0.50;0.50;;;;;;;;;;4960197;28;20247;-82
2022/09/07 10:25:35;;;;;;;0.83;0.83;;;;;;;;;;4974937;28;20208;-81
2022/09/07 10:28:06;;;;;;;4.57;2.70;;;;;;;;;;4977539;28;20215;-82
2022/09/07 10:30:47;;;;;;;1.00;1.00;;;;;;;;;;4969131;28;20191;-80
2022/09/07 10:33:20;;;;;;;2.27;0.87;;;;;;;;;;4960725;28;20217;-81
2022/09/07 10:35:53;;;;;;;1.43;1.43;;;;;;;;;;4968799;28;20226;-84
2022/09/07 10:38:23;;;;;;;0.70;0.70;;;;;;;;;;4962093;28;20212;-82
2022/09/07 10:40:59;;;;;;;1.40;1.30;;;;;;;;;;4982347;28;20317;-82
2022/09/07 10:43:35;;;;;;;2.20;1.83;;;;;;;;;;4981446;28;20223;-80
2022/09/07 10:46:16;;;;;;;0.30;0.30;;;;;;;;;;4981697;28;20206;-82
2022/09/07 10:49:12;;;;;;;4.03;1.50;;;;;;;;;;4981164;28;20298;-82
2022/09/07 10:52:08;;;;;;;2.63;1.50;;;;;;;;;;4961530;28;20247;-82
2022/09/07 10:54:41;;;;;;;1.90;1.03;;;;;;;;;;4968545;28;20219;-82
2022/09/07 10:57:23;;;;;;;0.50;0.50;;;;;;;;;;4962320;28;20265;-83
2022/09/07 10:59:55;;;;;;;7.60;2.40;;;;;;;;;;4971371;28;20219;-81
2022/09/07 11:02:47;;;;;;;0.80;0.80;;;;;;;;;;4962678;28;20239;-82
2022/09/07 11:05:41;;;;;;;3.50;1.13;;;;;;;;;;4966931;28;20205;-81
2022/09/07 11:08:19;;;;;;;2.13;0.83;;;;;;;;;;4982449;28;20236;-81
2022/09/07 11:10:53;;;;;;;0.90;0.90;;;;;;;;;;4968305;28;20243;-81
2022/09/07 11:13:24;;;;;;;1.20;1.10;;;;;;;;;;4964628;28;20229;-82
2022/09/07 11:15:55;;;;;;;0.30;0.30;;;;;;;;;;4974922;28;20209;-82
2022/09/07 11:18:26;;;;;;;3.17;2.37;;;;;;;;;;4963284;28;20199;-83
2022/09/07 11:20:57;;;;;;;0.70;0.70;;;;;;;;;;4983565;28;20341;-83
2022/09/07 11:23:29;;;;;;;1.23;1.13;;;;;;;;;;4978774;28;20197;-82
2022/09/07 11:26:01;;;;;;;2.67;1.27;;;;;;;;;;4966948;28;20296;-82
2022/09/07 11:28:31;;;;;;;0.60;0.60;;;;;;;;;;4977333;28;20205;-82
2022/09/07 11:31:02;;;;;;;4.83;2.73;;;;;;;;;;4959516;28;20207;-82
2022/09/07 11:33:34;;;;;;;2.20;1.20;;;;;;;;;;4968449;28;20206;-82
2022/09/07 11:36:07;;;;;;;4.23;1.93;;;;;;;;;;4963528;28;20424;-82
2022/09/07 11:38:43;;;;;;;4.77;2.40;;;;;;;;;;4964433;28;20224;-82
2022/09/07 11:41:17;;;;;;;7.10;1.87;;;;;;;;;;4978973;28;20220;-83
2022/09/07 11:43:46;;;;;;;5.50;2.70;;;;;;;;;;4979883;28;20201;-82
2022/09/07 11:46:17;;;;;;;3.23;1.77;;;;;;;;;;4965544;28;20204;-81
2022/09/07 11:48:47;;;;;;;1.10;1.00;;;;;;;;;;4964419;28;20204;-82
2022/09/07 11:51:21;;;;;;;0.67;0.67;;;;;;;;;;4961812;28;20208;-82
2022/09/07 11:53:52;;;;;;;2.97;1.87;;;;;;;;;;4969409;28;20275;-83
2022/09/07 11:56:23;;;;;;;0.60;0.60;;;;;;;;;;4962189;28;20215;-82
2022/09/07 11:59:18;;;;;;;6.47;1.70;;;;;;;;;;4964205;28;20227;-83
2022/09/07 12:01:55;;;;;;;0.40;0.40;;;;;;;;;;4951043;28;20244;-82
2022/09/07 12:04:46;;;;;;;0.30;0.30;;;;;;;;;;4965206;28;20255;-82
2022/09/07 12:07:31;;;;;;;0.60;0.60;;;;;;;;;;4964681;28;20214;-82
2022/09/07 12:10:24;;;;;;;4.73;1.80;;;;;;;;;;4982540;28;20204;-82
2022/09/07 12:13:26;;;;;;;3.13;1.50;;;;;;;;;;4953279;28;20257;-83
2022/09/07 12:16:00;;;;;;;4.13;1.33;;;;;;;;;;4900416;29;20261;-82
2022/09/07 12:18:40;;;;;;;3.83;1.20;;;;;;;;;;4903524;29;20235;-82
2022/09/07 12:21:24;;;;;;;2.70;1.63;;;;;;;;;;4946290;28;20236;-82
2022/09/07 12:23:56;;;;;;;2.77;2.17;;;;;;;;;;4974628;28;20263;-82
2022/09/07 12:26:43;;;;;;;0.63;0.63;;;;;;;;;;4966023;28;20209;-82
2022/09/07 12:29:20;;;;;;;5.13;2.70;;;;;;;;;;4981058;28;20212;-82
2022/09/07 12:31:52;;;;;;;3.60;2.67;;;;;;;;;;4979396;28;20201;-83
2022/09/07 12:34:50;;;;;;;7.80;1.83;;;;;;;;;;4983737;28;20206;-82
2022/09/07 12:37:37;;;;;;;1.17;0.60;;;;;;;;;;4965068;28;20287;-83
2022/09/07 12:40:24;;;;;;;2.67;1.70;;;;;;;;;;4983655;28;20221;-84
2022/09/07 12:43:09;;;;;;;0.97;0.93;;;;;;;;;;4966701;28;20213;-83
2022/09/07 12:45:54;;;;;;;0.97;0.73;;;;;;;;;;4961375;28;20200;-83
2022/09/07 12:48:33;;;;;;;1.00;1.00;;;;;;;;;;4964388;28;20205;-82
2022/09/07 12:51:08;;;;;;;3.10;1.63;;;;;;;;;;4985197;28;20248;-81
2022/09/07 12:53:43;;;;;;;2.27;2.10;;;;;;;;;;4969828;28;20554;-82
2022/09/07 12:56:20;;;;;;;0.97;0.87;;;;;;;;;;4983967;28;20209;-81
2022/09/07 12:59:06;;;;;;;3.33;1.93;;;;;;;;;;4981426;28;20199;-82
2022/09/07 13:01:53;;;;;;;0.50;0.50;;;;;;;;;;4981659;28;20232;-82
2022/09/07 13:04:38;;;;;;;0.50;0.50;;;;;;;;;;4966654;28;20245;-81
2022/09/07 13:07:23;;;;;;;0.30;0.30;;;;;;;;;;4971842;28;20220;-82
2022/09/07 13:09:56;;;;;;;3.50;1.70;;;;;;;;;;4975159;28;20203;-82
2022/09/07 13:12:32;;;;;;;5.37;2.13;;;;;;;;;;4984066;28;20198;-82
2022/09/07 13:15:37;;;;;;;1.17;1.17;;;;;;;;;;4977630;28;20238;-82
2022/09/07 13:18:22;;;;;;;2.40;0.93;;;;;;;;;;4969829;28;20300;-82
2022/09/07 13:21:22;;;;;;;10.30;1.50;;;;;;;;;;4954678;28;20307;-83
2022/09/07 13:24:06;;;;;;;0.53;0.53;;;;;;;;;;4986073;28;20204;-83
2022/09/07 13:26:59;;;;;;;6.37;2.40;;;;;;;;;;4967853;28;20304;-83
2022/09/07 13:29:32;;;;;;;0.57;0.57;;;;;;;;;;4987071;28;20216;-83
2022/09/07 13:32:06;;;;;;;1.43;0.90;;;;;;;;;;4979818;28;20200;-83
2022/09/07 13:34:44;;;;;;;0.43;0.43;;;;;;;;;;4970159;28;20211;-84
2022/09/07 13:37:16;;;;;;;1.13;1.13;;;;;;;;;;4984207;28;20218;-83
2022/09/07 13:39:46;;;;;;;2.23;1.13;;;;;;;;;;4981228;28;20233;-81
2022/09/07 13:42:19;;;;;;;0.53;0.53;;;;;;;;;;4960750;28;20313;-83
2022/09/07 13:44:57;;;;;;;5.30;2.83;;;;;;;;;;4982877;28;20215;-83
2022/09/07 13:47:47;;;;;;;0.50;0.50;;;;;;;;;;4963926;28;20212;-82
2022/09/07 13:50:41;;;;;;;;;;;;;;;;;;;;;
2022/09/07 13:53:34;;;;;;;5.00;0.97;;;;;;;;;;4988080;28;20262;-83
2022/09/07 13:56:17;;;;;;;0.50;0.50;;;;;;;;;;4970056;28;20235;-83
2022/09/07 13:58:59;;;;;;;0.50;0.50;;;;;;;;;;4965317;28;20258;-83
2022/09/07 14:01:37;;;;;;;0.90;0.90;;;;;;;;;;4965324;28;20233;-82
2022/09/07 14:04:20;;;;;;;4.00;1.40;;;;;;;;;;4983952;28;20500;-83
2022/09/07 14:06:48;;;;;;;0.80;0.80;;;;;;;;;;4982931;28;20203;-83
2022/09/07 14:09:19;;;;;;;4.17;2.10;;;;;;;;;;4961478;28;20215;-84
2022/09/07 14:15:18;;;;;;;1.70;1.07;;;;;;;;;;4960161;28;20214;-83
2022/09/07 14:17:48;;;;;;;9.87;2.03;;;;;;;;;;4984098;28;20290;-82
2022/09/07 14:20:17;;;;;;;2.10;2.00;;;;;;;;;;4967192;28;20261;-83
2022/09/07 14:22:46;;;;;;;4.83;3.13;;;;;;;;;;4973180;28;20222;-83
2022/09/07 14:25:21;;;;;;;4.93;2.00;;;;;;;;;;4968432;28;20200;-83
2022/09/07 14:27:51;;;;;;;5.27;2.30;;;;;;;;;;4980006;28;20226;-83
2022/09/07 14:30:26;;;;;;;2.37;1.60;;;;;;;;;;4974559;28;20199;-83
2022/09/07 14:33:00;;;;;;;0.80;0.80;;;;;;;;;;4984380;28;20202;-82
2022/09/07 14:35:41;;;;;;;2.43;1.43;;;;;;;;;;4962859;28;20256;-83
2022/09/07 14:38:14;;;;;;;8.53;2.20;;;;;;;;;;4987142;28;20199;-83
2022/09/07 14:40:47;;;;;;;22.90;2.47;;;;;;;;;;4976561;28;20203;-83
2022/09/07 14:43:49;;;;;;;1.30;1.20;;;;;;;;;;4993438;28;20210;-83
2022/09/07 14:46:32;;;;;;;2.33;1.73;;;;;;;;;;4969667;28;20208;-83
2022/09/07 14:49:19;;;;;;;0.40;0.40;;;;;;;;;;4993790;28;20263;-82
2022/09/07 14:51:48;;;;;;;1.90;1.80;;;;;;;;;;4973472;28;20202;-83
2022/09/07 14:54:19;;;;;;;0.97;0.97;;;;;;;;;;4965573;28;20213;-84
2022/09/07 14:57:03;;;;;;;1.63;1.53;;;;;;;;;;4970891;28;20200;-85
2022/09/07 14:59:38;;;;;;;1.73;1.37;;;;;;;;;;4970073;28;20204;-84
2022/09/07 15:02:25;;;;;;;3.40;2.37;;;;;;;;;;4989932;28;20250;-84
2022/09/07 15:05:13;;;;;;;0.20;0.20;;;;;;;;;;4959064;28;20207;-84
2022/09/07 15:07:46;;;;;;;0.93;0.93;;;;;;;;;;4981084;28;20227;-84
2022/09/07 15:10:19;;;;;;;1.97;1.07;;;;;;;;;;4964887;28;20200;-84
2022/09/07 15:13:06;;;;;;;1.30;1.13;;;;;;;;;;4980316;28;20212;-84
2022/09/07 15:15:38;;;;;;;9.30;2.90;;;;;;;;;;4963364;28;20216;-84
2022/09/07 15:18:26;;;;;;;3.87;2.37;;;;;;;;;;4963843;28;20230;-83
2022/09/07 15:20:55;;;;;;;7.13;1.40;;;;;;;;;;4961261;28;20204;-82
2022/09/07 15:23:25;;;;;;;11.77;1.53;;;;;;;;;;4967668;28;20276;-83
2022/09/07 15:25:55;;;;;;;1.90;0.90;;;;;;;;;;4979655;28;20203;-83